Time;durP1;ratioP1;P1;durP2;ratioP2;P2;SDS_P1;SDS_P2;PMS_P1;PMS_P2;Temp;Humidity;BMP_temperature;BMP_pressure;BME280_temperature;BME280_humidity;BME280_pressure;Samples;Min_cycle;Max_cycle;Signal;HPM_P1;HPM_P2
2022/06/07 00:02:30;;;;;;;;;;;;;;;21.88;56.68;100939.88;7403705;19;1833;-37
2022/06/07 00:04:58;;;;;;;;;;;;;;;21.84;56.89;100934.81;7405070;19;1725;-37
2022/06/07 00:07:28;;;;;;;;;;;;;;;21.84;56.75;100929.44;7404433;19;1624;-37
2022/06/07 00:09:56;;;;;;;;;;;;;;;21.81;56.52;100926.19;7404308;19;1849;-37
2022/06/07 00:12:25;;;;;;;;;;;;;;;21.84;56.63;100915.09;7403967;19;1382;-38
2022/06/07 00:14:53;;;;;;;;;;;;;;;21.82;56.75;100922.50;7404143;19;1749;-37
2022/06/07 00:17:22;;;;;;;;;;;;;;;21.81;56.66;100915.44;7402770;19;1905;-37
2022/06/07 00:19:53;;;;;;;;;;;;;;;21.81;56.73;100908.19;7404818;19;1831;-37
2022/06/07 00:22:21;;;;;;;;;;;;;;;21.81;56.37;100904.66;7404774;19;1114;-37
2022/06/07 00:24:49;;;;;;;;;;;;;;;21.78;56.43;100895.00;7402496;19;1849;-37
2022/06/07 00:27:17;;;;;;;;;;;;;;;21.81;56.19;100900.13;7403053;19;1480;-36
2022/06/07 00:29:47;;;;;;;;;;;;;;;21.76;56.21;100886.25;7403064;19;1842;-37
2022/06/07 00:32:18;;;;;;;;;;;;;;;21.73;56.30;100891.94;7403744;19;1672;-37
2022/06/07 00:34:47;;;;;;;;;;;;;;;21.75;55.91;100906.09;7404405;19;1885;-37
2022/06/07 00:37:18;;;;;;;;;;;;;;;21.76;55.87;100905.09;7405658;19;1019;-37
2022/06/07 00:39:46;;;;;;;;;;;;;;;21.78;55.79;100913.84;7401379;19;1728;-37
2022/06/07 00:42:15;;;;;;;;;;;;;;;21.77;56.02;100909.50;7402457;19;1556;-37
2022/06/07 00:44:44;;;;;;;;;;;;;;;21.77;55.94;100904.09;7404464;19;1671;-37
2022/06/07 00:47:14;;;;;;;;;;;;;;;21.74;56.01;100900.84;7404065;19;1361;-37
2022/06/07 00:49:45;;;;;;;;;;;;;;;21.72;55.99;100890.22;7402353;19;1857;-37
2022/06/07 00:52:14;;;;;;;;;;;;;;;21.72;55.55;100901.00;7404663;19;1119;-37
2022/06/07 00:54:45;;;;;;;;;;;;;;;21.73;56.04;100904.56;7401325;19;1788;-37
2022/06/07 00:57:13;;;;;;;;;;;;;;;21.75;55.68;100895.34;7402560;19;1828;-37
2022/06/07 00:59:41;;;;;;;;;;;;;;;21.68;55.84;100888.84;7403713;19;1587;-37
2022/06/07 01:02:10;;;;;;;;;;;;;;;21.68;55.72;100883.47;7402148;19;1547;-37
2022/06/07 01:04:38;;;;;;;;;;;;;;;21.69;55.59;100895.94;7402834;19;1704;-38
2022/06/07 01:12:31;;;;;;;;;;;;;;;21.68;55.25;100882.63;7402044;19;1675;-37
2022/06/07 01:15:00;;;;;;;;;;;;;;;21.66;55.38;100888.16;7402246;19;1803;-37
2022/06/07 01:17:28;;;;;;;;;;;;;;;21.68;55.45;100885.31;7402784;19;1576;-37
2022/06/07 01:19:56;;;;;;;;;;;;;;;21.67;55.40;100894.41;7402718;19;1822;-37
2022/06/07 01:22:28;;;;;;;;;;;;;;;21.66;55.49;100874.69;7403650;19;966;-37
2022/06/07 01:24:56;;;;;;;;;;;;;;;21.67;55.78;100889.84;7400412;19;1951;-37
2022/06/07 01:27:24;;;;;;;;;;;;;;;21.67;55.46;100889.03;7400834;19;1897;-37
2022/06/07 01:29:53;;;;;;;;;;;;;;;21.65;55.59;100890.00;7400800;19;1867;-37
2022/06/07 01:32:21;;;;;;;;;;;;;;;21.63;55.74;100875.00;7402177;19;1540;-37
2022/06/07 01:34:49;;;;;;;;;;;;;;;21.67;55.35;100884.47;7402385;19;1403;-37
2022/06/07 01:37:20;;;;;;;;;;;;;;;21.65;55.41;100891.84;7402238;19;1067;-37
2022/06/07 01:42:32;;;;;;;;;;;;;;;21.61;55.48;100867.06;7402153;19;2182;-37
2022/06/07 01:45:00;;;;;;;;;;;;;;;21.61;55.43;100879.69;7400507;19;1725;-37
2022/06/07 01:47:29;;;;;;;;;;;;;;;21.65;55.18;100889.16;7401916;19;1625;-37
2022/06/07 01:49:58;;;;;;;;;;;;;;;21.63;55.41;100901.91;7401268;19;1843;-37
2022/06/07 01:52:27;;;;;;;;;;;;;;;21.63;55.57;100886.63;7402395;19;1252;-37
2022/06/07 01:54:58;;;;;;;;;;;;;;;21.57;55.33;100879.13;7401280;19;1827;-37
2022/06/07 01:57:27;;;;;;;;;;;;;;;21.59;55.14;100884.38;7400310;19;1553;-37
2022/06/07 01:59:55;;;;;;;;;;;;;;;21.58;55.33;100878.13;7402679;19;1519;-37
2022/06/07 02:02:24;;;;;;;;;;;;;;;21.55;55.09;100874.91;7394101;19;3406;-58
2022/06/07 02:04:53;;;;;;;;;;;;;;;21.56;54.89;100873.91;7404085;19;1512;-58
2022/06/07 02:07:21;;;;;;;;;;;;;;;21.52;55.29;100886.81;7404989;19;1591;-58
2022/06/07 02:09:50;;;;;;;;;;;;;;;21.49;55.39;100886.25;7403568;19;1842;-58
2022/06/07 02:12:21;;;;;;;;;;;;;;;21.50;55.08;100885.25;7403216;19;1623;-58
2022/06/07 02:14:50;;;;;;;;;;;;;;;21.48;55.13;100882.72;7402827;19;1544;-58
2022/06/07 02:17:18;;;;;;;;;;;;;;;21.55;54.74;100897.28;7404851;19;1536;-58
2022/06/07 02:19:46;;;;;;;;;;;;;;;21.49;54.76;100880.88;7404021;19;1339;-58
2022/06/07 02:22:15;;;;;;;;;;;;;;;21.53;54.61;100884.97;7404100;19;1734;-58
2022/06/07 02:24:43;;;;;;;;;;;;;;;21.51;54.64;100876.22;7404792;19;1399;-58
2022/06/07 02:27:13;;;;;;;;;;;;;;;21.52;54.59;100876.03;7403907;19;1442;-58
2022/06/07 02:29:45;;;;;;;;;;;;;;;21.51;54.75;100865.44;7403077;19;1883;-58
2022/06/07 02:32:16;;;;;;;;;;;;;;;21.51;54.63;100879.75;7403921;19;1489;-58
2022/06/07 02:34:47;;;;;;;;;;;;;;;21.50;54.79;100898.72;7403588;19;1513;-58
2022/06/07 02:37:16;;;;;;;;;;;;;;;21.51;54.64;100889.66;7404987;19;999;-58
2022/06/07 02:39:45;;;;;;;;;;;;;;;21.51;54.69;100887.81;7403305;19;1368;-58
2022/06/07 02:42:14;;;;;;;;;;;;;;;21.47;54.79;100878.34;7409923;19;1532;-58
2022/06/07 02:44:45;;;;;;;;;;;;;;;21.49;54.56;100887.13;7411666;19;1608;-58
2022/06/07 02:47:13;;;;;;;;;;;;;;;21.43;54.80;100890.41;7411501;19;1611;-58
2022/06/07 02:49:42;;;;;;;;;;;;;;;21.44;54.61;100882.16;7410041;19;1850;-58
2022/06/07 02:52:10;;;;;;;;;;;;;;;21.47;54.39;100896.31;7412267;19;1009;-58
2022/06/07 02:54:39;;;;;;;;;;;;;;;21.44;54.67;100902.84;7409700;19;1329;-58
2022/06/07 02:57:08;;;;;;;;;;;;;;;21.45;54.72;100897.31;7410803;19;1588;-58
2022/06/07 03:02:34;;;;;;;;;;;;;;;21.45;54.62;100896.47;7408171;19;1529;-58
2022/06/07 03:05:03;;;;;;;;;;;;;;;21.47;54.63;100874.78;7409165;19;1269;-58
2022/06/07 03:07:31;;;;;;;;;;;;;;;21.45;54.67;100881.19;7411557;19;1022;-58
2022/06/07 03:09:59;;;;;;;;;;;;;;;21.50;54.74;100890.66;7407595;19;1854;-58
2022/06/07 03:12:28;;;;;;;;;;;;;;;21.48;54.56;100881.88;7409309;19;1516;-58
2022/06/07 03:14:57;;;;;;;;;;;;;;;21.48;54.65;100884.56;7408625;19;1607;-58
2022/06/07 03:17:25;;;;;;;;;;;;;;;21.47;55.00;100901.69;7410570;19;1540;-58
2022/06/07 03:19:57;;;;;;;;;;;;;;;21.45;55.15;100889.25;7407406;19;1535;-58
2022/06/07 03:22:25;;;;;;;;;;;;;;;21.48;54.92;100884.56;7410366;19;1059;-57
2022/06/07 03:24:54;;;;;;;;;;;;;;;21.50;55.22;100888.78;7408549;19;1667;-58
2022/06/07 03:27:22;;;;;;;;;;;;;;;21.51;55.23;100881.59;7408289;19;1377;-58
2022/06/07 03:29:50;;;;;;;;;;;;;;;21.52;55.22;100902.09;7407427;19;1825;-58
2022/06/07 03:32:19;;;;;;;;;;;;;;;21.55;55.28;100889.22;7409693;19;1608;-58
2022/06/07 03:34:47;;;;;;;;;;;;;;;21.57;55.20;100899.84;7409096;19;1266;-58
2022/06/07 03:37:19;;;;;;;;;;;;;;;21.55;55.05;100899.13;7411072;19;971;-58
2022/06/07 03:39:47;;;;;;;;;;;;;;;21.55;55.21;100888.38;7406814;19;1475;-58
2022/06/07 03:42:16;;;;;;;;;;;;;;;21.55;55.28;100883.00;7407832;19;1607;-58
2022/06/07 03:44:46;;;;;;;;;;;;;;;21.59;55.36;100895.16;7409236;19;1348;-58
2022/06/07 03:47:14;;;;;;;;;;;;;;;21.59;55.00;100905.91;7409333;19;1524;-58
2022/06/07 03:49:43;;;;;;;;;;;;;;;21.59;55.26;100893.28;7408944;19;1850;-58
2022/06/07 03:52:11;;;;;;;;;;;;;;;21.66;55.07;100898.91;7410039;19;1087;-58
2022/06/07 03:54:42;;;;;;;;;;;;;;;21.69;55.20;100893.25;7408561;19;1432;-58
2022/06/07 03:57:11;;;;;;;;;;;;;;;21.71;54.85;100898.47;7407545;19;1043;-58
2022/06/07 03:59:40;;;;;;;;;;;;;;;21.69;55.26;100904.00;7406338;19;1659;-58
2022/06/07 04:02:09;;;;;;;;;;;;;;;21.69;55.06;100890.56;7405473;19;1465;-58
2022/06/07 04:04:38;;;;;;;;;;;;;;;21.74;54.93;100899.00;7406880;19;1309;-58
2022/06/07 04:09:51;;;;;;;;;;;;;;;21.76;55.14;100913.16;7409244;19;1877;-58
2022/06/07 04:12:20;;;;;;;;;;;;;;;21.83;55.60;100916.97;7407213;19;1501;-57
2022/06/07 04:14:48;;;;;;;;;;;;;;;21.90;55.46;100902.88;7407203;19;1260;-58
2022/06/07 04:17:16;;;;;;;;;;;;;;;21.79;55.77;100888.66;7407636;19;1623;-58
2022/06/07 04:19:45;;;;;;;;;;;;;;;21.80;55.83;100902.94;7407989;19;1505;-59
2022/06/07 04:22:14;;;;;;;;;;;;;;;21.83;56.03;100891.91;7408596;19;1090;-59
2022/06/07 04:24:42;;;;;;;;;;;;;;;21.84;55.96;100899.81;7406115;19;1754;-58
2022/06/07 04:27:13;;;;;;;;;;;;;;;21.80;55.91;100894.88;7406236;19;1544;-59
2022/06/07 04:29:42;;;;;;;;;;;;;;;21.85;55.83;100901.50;7406382;19;1321;-58
2022/06/07 04:32:12;;;;;;;;;;;;;;;21.90;55.78;100902.88;7401622;19;1846;-59
2022/06/07 04:34:41;;;;;;;;;;;;;;;21.98;56.14;100908.38;7404457;19;1311;-59
2022/06/07 04:37:09;;;;;;;;;;;;;;;21.95;56.12;100904.13;7403549;19;906;-59
2022/06/07 04:39:37;;;;;;;;;;;;;;;22.06;55.95;100919.22;7401061;19;1384;-59
2022/06/07 04:42:06;;;;;;;;;;;;;;;22.01;55.85;100922.38;7401776;19;1355;-59
2022/06/07 04:44:37;;;;;;;;;;;;;;;22.05;56.11;100907.59;7402664;19;1607;-59
2022/06/07 04:47:05;;;;;;;;;;;;;;;22.18;56.14;100909.94;7402587;19;1359;-66
2022/06/07 04:49:34;;;;;;;;;;;;;;;22.30;55.75;100915.94;7406690;19;1390;-58
2022/06/07 04:52:02;;;;;;;;;;;;;;;22.45;55.97;100902.81;7406337;19;1903;-59
2022/06/07 04:54:30;;;;;;;;;;;;;;;22.51;56.07;100896.78;7405012;19;1434;-59
2022/06/07 04:56:58;;;;;;;;;;;;;;;22.50;56.62;100918.50;7407684;19;1239;-59
2022/06/07 04:59:28;;;;;;;;;;;;;;;22.51;56.67;100921.03;7405892;19;1438;-59
2022/06/07 05:01:59;;;;;;;;;;;;;;;22.62;56.49;100903.78;7403458;19;1588;-62
2022/06/07 05:04:27;;;;;;;;;;;;;;;22.64;56.68;100908.03;7404389;19;1466;-61
2022/06/07 05:06:56;;;;;;;;;;;;;;;22.62;57.25;100899.25;7406160;19;1373;-63
2022/06/07 05:09:25;;;;;;;;;;;;;;;22.62;57.38;100904.66;7406029;19;1352;-63
2022/06/07 05:11:54;;;;;;;;;;;;;;;22.63;57.17;100914.41;7404670;19;1847;-61
2022/06/07 05:14:23;;;;;;;;;;;;;;;22.68;57.71;100921.19;7407019;19;1536;-60
2022/06/07 05:16:52;;;;;;;;;;;;;;;22.75;57.44;100912.31;7406400;19;1402;-59
2022/06/07 05:19:23;;;;;;;;;;;;;;;22.76;57.25;100913.16;7407342;19;999;-59
2022/06/07 05:21:51;;;;;;;;;;;;;;;22.64;57.48;100917.94;7406042;19;1442;-59
2022/06/07 05:24:19;;;;;;;;;;;;;;;21.81;59.21;100927.03;7404344;19;1498;-59
2022/06/07 05:26:49;;;;;;;;;;;;;;;22.19;58.41;100924.25;7405615;19;1463;-59
2022/06/07 05:29:19;;;;;;;;;;;;;;;22.41;58.01;100922.97;7404755;19;1540;-59
2022/06/07 05:31:47;;;;;;;;;;;;;;;22.48;57.69;100929.44;7404573;19;1853;-59
2022/06/07 05:34:16;;;;;;;;;;;;;;;22.49;57.46;100917.66;7406374;19;1066;-59
2022/06/07 05:36:46;;;;;;;;;;;;;;;22.51;57.79;100923.75;7406470;19;1802;-59
2022/06/07 05:39:20;;;;;;;;;;;;;;;22.50;57.85;100927.44;7402373;19;1794;-59
2022/06/07 05:41:49;;;;;;;;;;;;;;;22.48;58.27;100924.03;7404904;19;1348;-59
2022/06/07 05:44:17;;;;;;;;;;;;;;;22.53;58.02;100932.50;7405201;19;1600;-59
2022/06/07 05:46:46;;;;;;;;;;;;;;;22.50;58.41;100931.97;7405876;19;1584;-59
2022/06/07 05:49:15;;;;;;;;;;;;;;;22.51;58.41;100922.91;7406467;19;945;-59
2022/06/07 05:51:43;;;;;;;;;;;;;;;22.50;58.54;100921.19;7404728;19;1864;-59
2022/06/07 05:54:15;;;;;;;;;;;;;;;22.51;58.33;100902.19;7402006;19;1459;-59
2022/06/07 05:56:43;;;;;;;;;;;;;;;22.49;58.61;100931.13;7405793;19;940;-59
2022/06/07 05:59:11;;;;;;;;;;;;;;;22.51;58.82;100923.75;7402782;19;1766;-58
2022/06/07 06:01:40;;;;;;;;;;;;;;;22.57;58.88;100923.13;7402314;19;1640;-58
2022/06/07 06:04:10;;;;;;;;;;;;;;;22.49;59.03;100906.88;7404736;19;1344;-59
2022/06/07 06:06:38;;;;;;;;;;;;;;;22.50;58.94;100900.50;7404514;19;1568;-59
2022/06/07 06:11:50;;;;;;;;;;;;;;;22.51;58.99;100912.13;7404349;19;1849;-59
2022/06/07 06:14:19;;;;;;;;;;;;;;;22.53;59.11;100916.34;7405078;19;1616;-59
2022/06/07 06:16:47;;;;;;;;;;;;;;;22.52;59.14;100901.19;7413131;19;1529;-59
2022/06/07 06:19:15;;;;;;;;;;;;;;;22.54;59.18;100912.66;7413419;19;960;-59
2022/06/07 06:21:45;;;;;;;;;;;;;;;22.54;58.87;100896.50;7412121;19;1687;-59
2022/06/07 06:24:15;;;;;;;;;;;;;;;22.57;59.08;100901.56;7408884;19;1765;-59
2022/06/07 06:26:44;;;;;;;;;;;;;;;22.55;59.05;100892.78;7412003;19;1626;-59
2022/06/07 06:29:15;;;;;;;;;;;;;;;22.57;59.05;100889.94;7412398;19;1565;-59
2022/06/07 06:31:46;;;;;;;;;;;;;;;22.72;59.35;100898.28;7409023;19;1862;-59
2022/06/07 06:34:14;;;;;;;;;;;;;;;22.02;60.84;100905.25;7411517;19;1386;-59
2022/06/07 06:36:44;;;;;;;;;;;;;;;20.89;61.41;100914.31;7412108;19;1758;-59
2022/06/07 06:39:12;;;;;;;;;;;;;;;20.22;61.44;100916.84;7408180;19;1774;-59
2022/06/07 06:41:43;;;;;;;;;;;;;;;19.95;60.78;100904.09;7411204;19;1529;-59
2022/06/07 06:44:14;;;;;;;;;;;;;;;19.81;59.98;100909.84;7411703;19;1288;-59
2022/06/07 06:46:44;;;;;;;;;;;;;;;19.70;59.60;100910.78;7411171;19;1306;-59
2022/06/07 06:49:14;;;;;;;;;;;;;;;19.64;58.74;100900.59;7411763;19;1320;-59
2022/06/07 06:51:43;;;;;;;;;;;;;;;19.63;58.54;100906.94;7409508;19;1859;-58
2022/06/07 06:54:12;;;;;;;;;;;;;;;19.51;57.76;100897.31;7410520;19;1560;-59
2022/06/07 06:56:41;;;;;;;;;;;;;;;19.30;57.34;100887.50;7410989;19;1300;-59
2022/06/07 06:59:12;;;;;;;;;;;;;;;19.17;56.69;100886.88;7408486;19;1761;-59
2022/06/07 07:01:44;;;;;;;;;;;;;;;19.21;56.77;100890.97;7408646;19;1555;-59
2022/06/07 07:04:14;;;;;;;;;;;;;;;19.43;56.50;100887.25;7410998;19;1611;-59
2022/06/07 07:06:43;;;;;;;;;;;;;;;19.96;56.86;100891.53;7405833;19;1479;-59
2022/06/07 07:09:12;;;;;;;;;;;;;;;19.88;57.88;100886.03;7408721;19;1397;-59
2022/06/07 07:11:41;;;;;;;;;;;;;;;20.09;59.02;100884.03;7406893;19;1846;-59
2022/06/07 07:14:10;;;;;;;;;;;;;;;20.10;61.17;100893.81;7407967;19;1350;-59
2022/06/07 07:16:41;;;;;;;;;;;;;;;20.02;62.00;100883.75;7410056;19;1300;-59
2022/06/07 07:19:13;;;;;;;;;;;;;;;19.92;61.63;100895.50;7408320;19;1667;-58
2022/06/07 07:21:42;;;;;;;;;;;;;;;19.66;61.33;100898.63;7409313;19;1758;-59
2022/06/07 07:24:13;;;;;;;;;;;;;;;19.39;60.39;100869.72;7408879;19;1526;-59
2022/06/07 07:26:43;;;;;;;;;;;;;;;19.11;59.17;100865.94;7407886;19;1400;-59
2022/06/07 07:29:12;;;;;;;;;;;;;;;18.99;58.42;100875.91;7409107;19;1320;-59
2022/06/07 07:31:41;;;;;;;;;;;;;;;18.88;57.89;100866.97;7408086;19;1861;-59
2022/06/07 07:34:14;;;;;;;;;;;;;;;18.76;57.18;100875.16;7409008;19;1443;-59
2022/06/07 07:36:44;;;;;;;;;;;;;;;18.67;56.24;100864.25;7409231;19;1475;-59
2022/06/07 07:39:13;;;;;;;;;;;;;;;19.01;56.42;100856.03;7406121;19;1451;-66
2022/06/07 07:41:42;;;;;;;;;;;;;;;20.39;56.34;100868.78;7409244;19;1462;-60
2022/06/07 07:44:14;;;;;;;;;;;;;;;21.32;56.17;100860.97;7410150;19;1524;-61
2022/06/07 07:46:44;;;;;;;;;;;;;;;21.78;54.83;100860.03;7408440;19;1296;-57
2022/06/07 07:49:16;;;;;;;;;;;;;;;22.04;54.13;100851.19;7409558;19;1739;-57
2022/06/07 07:51:45;;;;;;;;;;;;;;;22.18;54.30;100852.50;7409170;19;1853;-65
2022/06/07 07:54:15;;;;;;;;;;;;;;;22.22;54.50;100843.97;7407679;19;1601;-58
2022/06/07 07:56:43;;;;;;;;;;;;;;;22.24;54.92;100835.75;7409509;19;991;-58
2022/06/07 07:59:14;;;;;;;;;;;;;;;22.27;55.33;100840.00;7407942;19;1518;-57
2022/06/07 08:01:43;;;;;;;;;;;;;;;22.22;55.80;100827.81;7404834;19;1497;-61
2022/06/07 08:04:11;;;;;;;;;;;;;;;22.24;55.77;100825.84;7409404;19;1386;-58
2022/06/07 08:06:42;;;;;;;;;;;;;;;22.23;56.47;100824.13;7408111;19;1487;-67
2022/06/07 08:09:11;;;;;;;;;;;;;;;22.27;56.12;100822.00;7405336;19;1526;-58
2022/06/07 08:11:41;;;;;;;;;;;;;;;22.37;56.10;100821.91;7407626;19;1842;-58
2022/06/07 08:14:11;;;;;;;;;;;;;;;22.34;56.30;100814.13;7407762;19;1800;-58
2022/06/07 08:16:39;;;;;;;;;;;;;;;22.38;55.83;100815.50;7409468;19;1391;-58
2022/06/07 08:19:09;;;;;;;;;;;;;;;22.42;55.82;100811.47;7407424;19;1276;-58
2022/06/07 08:21:37;;;;;;;;;;;;;;;22.43;55.96;100807.81;7406418;19;1682;-58
2022/06/07 08:24:09;;;;;;;;;;;;;;;22.49;56.31;100809.03;7402608;19;1392;-58
2022/06/07 08:26:38;;;;;;;;;;;;;;;22.50;56.25;100808.88;7404496;19;1552;-58
2022/06/07 08:29:06;;;;;;;;;;;;;;;22.50;55.94;100814.28;7405422;19;1273;-58
2022/06/07 08:31:35;;;;;;;;;;;;;;;22.51;56.48;100805.16;7407390;19;1862;-58
2022/06/07 08:39:27;;;;;;;;;;;;;;;22.56;57.02;100813.63;7404451;19;1399;-58
2022/06/07 08:41:57;;;;;;;;;;;;;;;22.59;56.93;100802.53;7406668;19;1348;-58
2022/06/07 08:44:28;;;;;;;;;;;;;;;22.55;57.01;100793.06;7406574;19;1679;-58
2022/06/07 08:46:58;;;;;;;;;;;;;;;22.61;58.23;100800.50;7405730;19;1389;-58
2022/06/07 08:49:26;;;;;;;;;;;;;;;22.59;57.31;100793.59;7406898;19;1336;-58
2022/06/07 08:52:10;;;;;;;;;;;;;;;22.60;57.32;100793.44;7405616;19;1865;-58
2022/06/07 08:54:42;;;;;;;;;;;;;;;22.63;57.33;100793.13;7405961;19;1416;-58
2022/06/07 08:57:18;;;;;;;;;;;;;;;22.63;57.54;100795.81;7405096;19;1316;-58
2022/06/07 08:59:49;;;;;;;;;;;;;;;22.67;56.97;100782.03;7404390;19;1489;-58
2022/06/07 09:02:26;;;;;;;;;;;;;;;22.71;57.10;100786.94;7404819;19;1679;-59
2022/06/07 09:04:55;;;;;;;;;;;;;;;22.66;57.04;100775.78;7405586;19;1532;-58
2022/06/07 09:07:23;;;;;;;;;;;;;;;22.72;57.73;100788.63;7405599;19;1528;-58
2022/06/07 09:13:02;;;;;;;;;;;;;;;22.66;57.96;100774.94;7401943;19;1845;-58
2022/06/07 09:15:32;;;;;;;;;;;;;;;22.76;58.35;100772.97;7404688;19;1692;-58
2022/06/07 09:18:02;;;;;;;;;;;;;;;22.94;58.88;100772.88;7405220;19;1619;-58
2022/06/07 09:20:35;;;;;;;;;;;;;;;22.83;58.21;100761.38;7404920;19;1536;-58
2022/06/07 09:23:04;;;;;;;;;;;;;;;22.83;58.95;100766.78;7404605;19;1335;-58
2022/06/07 09:25:38;;;;;;;;;;;;;;;22.85;59.38;100763.91;7405875;19;1580;-59
2022/06/07 09:28:08;;;;;;;;;;;;;;;22.74;58.98;100756.09;7406035;19;1565;-57
2022/06/07 09:30:38;;;;;;;;;;;;;;;22.75;59.72;100764.03;7398419;19;1480;-61
2022/06/07 09:33:10;;;;;;;;;;;;;;;22.80;59.74;100768.94;7404365;19;1873;-63
2022/06/07 09:35:39;;;;;;;;;;;;;;;22.74;59.86;100756.97;7405058;19;1493;-61
2022/06/07 09:38:12;;;;;;;;;;;;;;;22.74;59.47;100750.72;7404809;19;1166;-63
2022/06/07 09:40:44;;;;;;;;;;;;;;;22.77;59.26;100748.53;7404387;19;1757;-60
2022/06/07 09:43:19;;;;;;;;;;;;;;;22.75;59.99;100744.31;7404429;19;1627;-60
2022/06/07 09:45:54;;;;;;;;;;;;;;;22.72;60.45;100742.81;7403550;19;1482;-63
2022/06/07 09:48:27;;;;;;;;;;;;;;;22.75;60.71;100734.38;7403821;19;1470;-62
2022/06/07 09:51:01;;;;;;;;;;;;;;;22.81;60.01;100740.97;7402873;19;1360;-56
2022/06/07 09:53:35;;;;;;;;;;;;;;;22.78;59.77;100738.59;7401804;19;1933;-59
2022/06/07 09:56:17;;;;;;;;;;;;;;;22.76;59.79;100737.91;7405229;19;1638;-56
2022/06/07 09:58:54;;;;;;;;;;;;;;;22.74;59.52;100730.00;7403840;19;1894;-59
2022/06/07 10:01:26;;;;;;;;;;;;;;;22.76;59.50;100710.94;7402726;19;1449;-56
2022/06/07 10:03:56;;;;;;;;;;;;;;;22.75;59.59;100720.06;7403272;19;1292;-59
2022/06/07 10:06:28;;;;;;;;;;;;;;;22.76;59.99;100728.00;7404010;19;1366;-59
2022/06/07 10:09:03;;;;;;;;;;;;;;;22.71;59.89;100729.47;7403667;19;1381;-59
2022/06/07 10:11:38;;;;;;;;;;;;;;;22.69;59.70;100724.25;7404653;19;1295;-59
2022/06/07 10:14:19;;;;;;;;;;;;;;;22.67;59.72;100722.72;7405734;19;1486;-56
2022/06/07 10:16:53;;;;;;;;;;;;;;;22.67;59.62;100717.34;7404824;19;1913;-59
2022/06/07 10:19:32;;;;;;;;;;;;;;;22.65;60.08;100728.28;7404837;19;1312;-56
2022/06/07 10:22:09;;;;;;;;;;;;;;;22.64;59.67;100722.03;7404553;19;1943;-59
2022/06/07 10:24:44;;;;;;;;;;;;;;;22.68;60.13;100719.00;7405007;19;1439;-56
2022/06/07 10:27:20;;;;;;;;;;;;;;;22.66;60.01;100721.03;7403333;19;1494;-59
2022/06/07 10:30:10;;;;;;;;;;;;;;;22.63;60.05;100712.25;7402336;19;1424;-56
2022/06/07 10:32:44;;;;;;;;;;;;;;;22.66;60.00;100711.09;7401899;19;1865;-58
2022/06/07 10:35:17;;;;;;;;;;;;;;;22.69;59.95;100718.00;7404673;19;1528;-59
2022/06/07 10:37:54;;;;;;;;;;;;;;;22.63;60.08;100711.41;7404052;19;1471;-56
2022/06/07 10:40:27;;;;;;;;;;;;;;;22.68;60.41;100713.63;7402919;19;1485;-56
2022/06/07 10:43:00;;;;;;;;;;;;;;;22.68;60.23;100702.84;7402834;19;1351;-59
2022/06/07 10:45:30;;;;;;;;;;;;;;;22.66;60.35;100702.16;7402525;19;1351;-59
2022/06/07 10:48:01;;;;;;;;;;;;;;;22.68;60.19;100705.53;7402531;19;1371;-59
2022/06/07 10:50:32;;;;;;;;;;;;;;;22.66;60.29;100704.84;7402127;19;1380;-59
2022/06/07 10:53:05;;;;;;;;;;;;;;;22.65;60.27;100695.94;7401972;19;1851;-59
2022/06/07 10:55:37;;;;;;;;;;;;;;;22.68;60.64;100694.75;7402153;19;1392;-59
2022/06/07 10:58:17;;;;;;;;;;;;;;;22.68;60.23;100695.63;7403679;19;1308;-56
2022/06/07 11:00:49;;;;;;;;;;;;;;;22.68;61.05;100697.44;7405004;19;1366;-59
2022/06/07 11:03:25;;;;;;;;;;;;;;;22.69;60.68;100691.06;7411965;19;975;-56
2022/06/07 11:11:21;;;;;;;;;;;;;;;22.73;60.88;100684.34;7412431;19;1225;-56
2022/06/07 11:14:01;;;;;;;;;;;;;;;22.69;60.65;100680.28;7407872;19;1868;-56
2022/06/07 11:16:32;;;;;;;;;;;;;;;22.68;60.51;100676.75;7410561;19;1670;-59
2022/06/07 11:19:03;;;;;;;;;;;;;;;22.71;60.68;100680.97;7409776;19;1754;-56
2022/06/07 11:21:34;;;;;;;;;;;;;;;22.70;60.63;100663.09;7409451;19;1481;-59
2022/06/07 11:24:19;;;;;;;;;;;;;;;22.69;61.19;100658.72;7406465;19;1659;-56
2022/06/07 11:27:03;;;;;;;;;;;;;;;22.66;60.71;100667.97;7409600;19;1741;-59
2022/06/07 11:29:35;;;;;;;;;;;;;;;22.66;60.86;100651.81;7409588;19;1540;-55
2022/06/07 11:32:05;;;;;;;;;;;;;;;22.67;60.60;100661.56;7408535;19;1854;-56
2022/06/07 11:34:35;;;;;;;;;;;;;;;22.68;60.84;100668.66;7408842;19;1301;-56
2022/06/07 11:37:04;;;;;;;;;;;;;;;22.68;60.68;100657.00;7410341;19;1327;-59
2022/06/07 11:39:34;;;;;;;;;;;;;;;22.67;61.49;100640.00;7409640;19;1536;-56
2022/06/07 11:42:18;;;;;;;;;;;;;;;22.70;61.26;100649.59;7409491;19;1345;-59
2022/06/07 11:45:07;;;;;;;;;;;;;;;22.70;61.33;100652.31;7409570;19;1296;-56
2022/06/07 11:47:38;;;;;;;;;;;;;;;22.67;60.80;100637.31;7407242;19;1312;-56
2022/06/07 11:50:15;;;;;;;;;;;;;;;22.70;61.38;100652.31;7409830;19;1525;-59
2022/06/07 11:52:58;;;;;;;;;;;;;;;22.69;61.07;100638.00;7409524;19;1859;-59
2022/06/07 11:55:27;;;;;;;;;;;;;;;22.70;61.10;100641.53;7408317;19;1395;-56
2022/06/07 11:58:00;;;;;;;;;;;;;;;22.71;61.00;100637.81;7408889;19;1809;-59
2022/06/07 12:00:53;;;;;;;;;;;;;;;22.71;61.29;100643.22;7407190;19;1537;-56
2022/06/07 12:03:37;;;;;;;;;;;;;;;22.68;61.32;100627.34;7407433;19;1815;-56
2022/06/07 12:06:26;;;;;;;;;;;;;;;22.68;61.53;100635.44;7409337;19;1379;-59
2022/06/07 12:09:03;;;;;;;;;;;;;;;22.74;61.56;100630.25;7407354;19;2636;-59
2022/06/07 12:11:34;;;;;;;;;;;;;;;22.71;61.83;100627.88;7406653;19;1397;-56
2022/06/07 12:14:29;;;;;;;;;;;;;;;22.70;61.80;100630.72;7405053;19;1857;-57
2022/06/07 12:16:59;;;;;;;;;;;;;;;22.72;62.28;100639.50;7404109;19;1964;-59
2022/06/07 12:19:32;;;;;;;;;;;;;;;22.71;61.48;100627.06;7408996;19;1701;-59
2022/06/07 12:22:04;;;;;;;;;;;;;;;22.70;61.72;100625.34;7406493;19;1260;-59
2022/06/07 12:24:41;;;;;;;;;;;;;;;22.89;61.80;100619.69;7406223;19;1495;-56
2022/06/07 12:27:16;;;;;;;;;;;;;;;22.95;61.38;100616.31;7407073;19;1582;-58
2022/06/07 12:29:45;;;;;;;;;;;;;;;22.87;61.87;100610.91;7408139;19;1383;-60
2022/06/07 12:32:17;;;;;;;;;;;;;;;22.81;61.90;100616.97;7407945;19;1684;-61
2022/06/07 12:34:49;;;;;;;;;;;;;;;22.83;61.98;100614.94;7406494;19;1455;-55
2022/06/07 12:37:24;;;;;;;;;;;;;;;22.78;61.74;100625.38;7408772;19;1224;-55
2022/06/07 12:39:54;;;;;;;;;;;;;;;22.73;62.40;100625.03;7404972;19;1637;-64
2022/06/07 12:42:23;;;;;;;;;;;;;;;22.80;62.55;100617.97;7405065;19;1413;-60
2022/06/07 12:44:56;;;;;;;;;;;;;;;22.87;62.36;100615.47;7406066;19;1573;-55
2022/06/07 12:47:26;;;;;;;;;;;;;;;22.86;62.07;100620.03;7406950;19;1853;-59
2022/06/07 12:49:57;;;;;;;;;;;;;;;22.82;62.50;100629.44;7406543;19;1293;-59
2022/06/07 12:52:27;;;;;;;;;;;;;;;22.78;62.70;100617.28;7407437;19;1637;-58
2022/06/07 12:55:00;;;;;;;;;;;;;;;22.78;62.69;100623.53;7404423;19;1699;-61
2022/06/07 12:57:30;;;;;;;;;;;;;;;22.79;62.71;100608.19;7405684;19;1479;-57
2022/06/07 13:00:03;;;;;;;;;;;;;;;22.81;62.49;100611.56;7405421;19;1762;-58
2022/06/07 13:02:37;;;;;;;;;;;;;;;22.76;62.73;100603.13;7405092;19;1699;-56
2022/06/07 13:05:11;;;;;;;;;;;;;;;22.72;62.89;100624.19;7406143;19;1623;-58
2022/06/07 13:07:45;;;;;;;;;;;;;;;22.71;62.66;100617.09;7406308;19;1520;-56
2022/06/07 13:10:17;;;;;;;;;;;;;;;22.67;62.83;100620.28;7405746;19;1206;-56
2022/06/07 13:12:47;;;;;;;;;;;;;;;22.72;62.54;100623.31;7404599;19;1858;-56
2022/06/07 13:15:17;;;;;;;;;;;;;;;22.68;62.66;100616.56;7405201;19;1536;-56
2022/06/07 13:17:54;;;;;;;;;;;;;;;22.67;62.50;100606.81;7404987;19;1537;-56
2022/06/07 13:20:31;;;;;;;;;;;;;;;22.73;62.48;100616.94;7404520;19;1284;-56
2022/06/07 13:22:59;;;;;;;;;;;;;;;22.66;62.88;100623.97;7404963;19;1003;-59
2022/06/07 13:25:29;;;;;;;;;;;;;;;22.67;62.67;100620.28;7404815;19;1745;-56
2022/06/07 13:28:07;;;;;;;;;;;;;;;22.67;62.82;100621.13;7405418;19;1608;-57
2022/06/07 13:30:40;;;;;;;;;;;;;;;22.62;63.00;100618.94;7405302;19;1616;-58
2022/06/07 13:33:21;;;;;;;;;;;;;;;22.62;62.92;100629.72;7404680;19;1842;-56
2022/06/07 13:35:55;;;;;;;;;;;;;;;22.63;63.03;100630.56;7404538;19;1348;-58
2022/06/07 13:38:26;;;;;;;;;;;;;;;22.62;62.96;100618.94;7405348;19;1016;-59